Time;durP1;ratioP1;P1;durP2;ratioP2;P2;SDS_P1;SDS_P2;PMS_P1;PMS_P2;Temp;Humidity;BMP_temperature;BMP_pressure;BME280_temperature;BME280_humidity;BME280_pressure;Samples;Min_cycle;Max_cycle;Signal;HPM_P1;HPM_P2
2023/08/19 00:00:15;;;;;;;14.80;7.25;;;;;;;;;;5093566;28;20043;-75
2023/08/19 00:02:44;;;;;;;10.18;7.40;;;;;;;;;;5075417;28;20558;-74
2023/08/19 00:05:10;;;;;;;7.00;6.30;;;;;;;;;;5093168;28;20024;-74
2023/08/19 00:07:35;;;;;;;9.73;7.22;;;;;;;;;;5093478;28;20020;-74
2023/08/19 00:10:03;;;;;;;9.27;6.82;;;;;;;;;;5093292;28;20027;-74
2023/08/19 00:12:29;;;;;;;10.23;6.75;;;;;;;;;;5093047;28;20047;-74
2023/08/19 00:14:57;;;;;;;10.00;6.53;;;;;;;;;;5092854;28;20579;-75
2023/08/19 00:17:23;;;;;;;8.70;7.05;;;;;;;;;;5074840;28;20028;-75
2023/08/19 00:19:49;;;;;;;10.70;7.05;;;;;;;;;;5093214;28;20024;-75
2023/08/19 00:22:15;;;;;;;9.65;6.60;;;;;;;;;;5093641;28;20035;-73
2023/08/19 00:24:41;;;;;;;9.20;7.50;;;;;;;;;;5092830;28;20407;-74
2023/08/19 00:27:06;;;;;;;9.73;7.07;;;;;;;;;;5075010;28;20043;-74
2023/08/19 00:29:31;;;;;;;8.52;7.15;;;;;;;;;;5092888;28;20027;-74
2023/08/19 00:31:56;;;;;;;9.27;7.45;;;;;;;;;;5092893;28;20490;-74
2023/08/19 00:34:22;;;;;;;9.80;7.30;;;;;;;;;;5093275;28;20103;-74
2023/08/19 00:36:48;;;;;;;8.85;7.00;;;;;;;;;;5093866;28;20273;-74
2023/08/19 00:39:13;;;;;;;9.52;7.30;;;;;;;;;;5093114;28;20020;-74
2023/08/19 00:41:38;;;;;;;10.80;7.07;;;;;;;;;;5074571;28;20020;-74
2023/08/19 00:44:04;;;;;;;9.18;7.28;;;;;;;;;;5074653;28;20020;-74
2023/08/19 00:46:30;;;;;;;9.43;7.03;;;;;;;;;;5092598;28;20020;-74
2023/08/19 00:48:56;;;;;;;9.77;6.70;;;;;;;;;;5092698;28;20426;-73
2023/08/19 00:51:22;;;;;;;12.02;6.80;;;;;;;;;;5092562;28;20020;-74
2023/08/19 00:53:48;;;;;;;10.20;7.35;;;;;;;;;;5092622;28;20031;-74
2023/08/19 00:56:13;;;;;;;9.88;6.85;;;;;;;;;;5092499;28;20055;-74
2023/08/19 00:58:39;;;;;;;11.30;6.95;;;;;;;;;;5074487;28;20024;-74
2023/08/19 01:01:04;;;;;;;9.52;6.65;;;;;;;;;;5074482;28;20031;-74
2023/08/19 01:03:29;;;;;;;7.55;6.75;;;;;;;;;;5093835;28;20031;-75
2023/08/19 01:06:10;;;;;;;8.03;7.03;;;;;;;;;;5096766;28;20153;-74
2023/08/19 01:09:12;;;;;;;9.20;7.10;;;;;;;;;;5078559;28;20673;-75
2023/08/19 01:11:56;;;;;;;10.13;7.72;;;;;;;;;;5092430;28;20377;-75
2023/08/19 01:14:34;;;;;;;;;;;;;;;;;;5096640;28;20046;-75
2023/08/19 01:17:03;;;;;;;8.52;6.93;;;;;;;;;;5096582;28;19903;-75
2023/08/19 01:19:30;;;;;;;10.48;7.13;;;;;;;;;;5096325;28;20043;-75
2023/08/19 01:22:01;;;;;;;10.93;7.22;;;;;;;;;;5096241;28;20093;-75
2023/08/19 01:24:33;;;;;;;10.07;7.70;;;;;;;;;;5096157;28;20034;-74
2023/08/19 01:26:58;;;;;;;9.82;7.65;;;;;;;;;;5096180;28;20040;-74
2023/08/19 01:29:23;;;;;;;11.15;7.85;;;;;;;;;;5077955;28;20077;-74
2023/08/19 01:31:49;;;;;;;9.40;7.20;;;;;;;;;;5096057;28;20538;-74
2023/08/19 01:34:14;;;;;;;10.00;7.05;;;;;;;;;;5095838;28;20024;-74
2023/08/19 01:36:44;;;;;;;8.75;6.88;;;;;;;;;;5077830;28;20030;-74
2023/08/19 01:39:10;;;;;;;8.52;7.35;;;;;;;;;;5096168;28;20024;-73
2023/08/19 01:41:37;;;;;;;9.60;7.20;;;;;;;;;;5095805;28;20032;-74
2023/08/19 01:44:03;;;;;;;9.85;7.72;;;;;;;;;;5095842;28;20027;-74
2023/08/19 01:46:29;;;;;;;9.32;6.85;;;;;;;;;;5077521;28;20050;-74
2023/08/19 01:48:54;;;;;;;9.13;6.88;;;;;;;;;;5095924;28;20035;-75
2023/08/19 01:51:21;;;;;;;9.02;6.68;;;;;;;;;;5096100;28;20024;-74
2023/08/19 01:53:46;;;;;;;9.50;7.25;;;;;;;;;;5095615;28;20024;-75
2023/08/19 01:56:12;;;;;;;9.15;7.40;;;;;;;;;;5095551;28;20023;-75
2023/08/19 01:58:37;;;;;;;9.85;6.88;;;;;;;;;;5077469;28;20493;-74
2023/08/19 02:01:02;;;;;;;10.13;7.15;;;;;;;;;;5095667;28;20036;-74
2023/08/19 02:03:28;;;;;;;9.38;7.68;;;;;;;;;;5095405;28;20131;-74
2023/08/19 02:05:53;;;;;;;8.20;7.30;;;;;;;;;;5095311;28;20024;-73
2023/08/19 02:08:18;;;;;;;10.65;6.75;;;;;;;;;;5077960;28;20024;-73
2023/08/19 02:10:44;;;;;;;9.23;7.70;;;;;;;;;;5077171;28;20012;-74
2023/08/19 02:13:09;;;;;;;9.55;7.22;;;;;;;;;;5095365;28;20354;-73
2023/08/19 02:15:35;;;;;;;9.65;6.95;;;;;;;;;;5094260;28;20063;-75
2023/08/19 02:18:00;;;;;;;13.80;7.30;;;;;;;;;;5095156;28;20024;-75
2023/08/19 02:20:26;;;;;;;10.82;7.47;;;;;;;;;;5076831;28;20491;-75
2023/08/19 02:22:52;;;;;;;12.23;7.97;;;;;;;;;;5095102;28;20024;-75
2023/08/19 02:25:17;;;;;;;10.65;7.50;;;;;;;;;;5076830;28;20065;-74
2023/08/19 02:27:42;;;;;;;10.75;7.35;;;;;;;;;;5094999;28;20019;-75
2023/08/19 02:30:10;;;;;;;12.00;7.93;;;;;;;;;;5076868;28;20024;-75
2023/08/19 02:32:35;;;;;;;8.38;7.53;;;;;;;;;;5095013;28;20024;-75
2023/08/19 02:35:01;;;;;;;12.10;7.38;;;;;;;;;;5076734;28;20027;-75
2023/08/19 02:37:26;;;;;;;8.35;7.30;;;;;;;;;;5095109;28;20529;-74
2023/08/19 02:39:51;;;;;;;9.27;7.43;;;;;;;;;;5094951;28;20023;-73
2023/08/19 02:42:17;;;;;;;8.48;7.07;;;;;;;;;;5076498;28;20490;-75
2023/08/19 02:44:43;;;;;;;9.60;7.38;;;;;;;;;;5094561;28;20027;-75
2023/08/19 02:47:08;;;;;;;11.07;7.22;;;;;;;;;;5094546;28;20023;-75
2023/08/19 02:49:34;;;;;;;9.00;7.40;;;;;;;;;;5076461;28;20016;-75
2023/08/19 02:51:59;;;;;;;10.63;7.50;;;;;;;;;;5094745;28;20028;-75
2023/08/19 02:54:25;;;;;;;10.77;7.22;;;;;;;;;;5094331;28;20016;-75
2023/08/19 02:56:50;;;;;;;9.63;7.40;;;;;;;;;;5094452;28;20122;-75
2023/08/19 02:59:15;;;;;;;9.17;6.97;;;;;;;;;;5094480;28;20268;-74
2023/08/19 03:01:41;;;;;;;9.30;7.07;;;;;;;;;;5094315;28;20770;-75
2023/08/19 03:04:07;;;;;;;9.45;7.05;;;;;;;;;;5094231;28;20027;-74
2023/08/19 03:06:33;;;;;;;8.30;7.32;;;;;;;;;;5076070;28;20509;-74
2023/08/19 03:08:58;;;;;;;11.88;7.47;;;;;;;;;;5094292;28;20032;-75
2023/08/19 03:11:23;;;;;;;10.00;7.45;;;;;;;;;;5094773;28;20413;-75
2023/08/19 03:13:49;;;;;;;12.00;7.30;;;;;;;;;;5094178;28;20042;-75
2023/08/19 03:16:16;;;;;;;13.57;7.82;;;;;;;;;;5075720;28;20036;-75
2023/08/19 03:18:41;;;;;;;11.45;7.57;;;;;;;;;;5093749;28;20036;-75
2023/08/19 03:21:06;;;;;;;8.43;7.13;;;;;;;;;;5093272;28;20027;-75
2023/08/19 03:23:31;;;;;;;10.43;7.07;;;;;;;;;;5074628;28;20028;-75
2023/08/19 03:25:57;;;;;;;10.43;7.43;;;;;;;;;;5093636;28;20267;-74
2023/08/19 03:28:23;;;;;;;9.43;7.25;;;;;;;;;;5091566;28;20065;-74
2023/08/19 03:30:48;;;;;;;14.13;7.15;;;;;;;;;;5093657;28;20095;-74
2023/08/19 03:33:13;;;;;;;8.77;7.00;;;;;;;;;;5093856;28;20368;-75
2023/08/19 03:35:39;;;;;;;9.98;7.53;;;;;;;;;;5093643;28;20319;-75
2023/08/19 03:38:04;;;;;;;9.13;7.00;;;;;;;;;;5094051;28;20024;-75
2023/08/19 03:40:29;;;;;;;10.98;7.47;;;;;;;;;;5093732;28;20032;-75
2023/08/19 03:42:54;;;;;;;9.47;7.63;;;;;;;;;;5093613;28;20016;-75
2023/08/19 03:45:20;;;;;;;8.45;7.47;;;;;;;;;;5093403;28;20812;-75
2023/08/19 03:47:45;;;;;;;9.50;7.07;;;;;;;;;;5093513;28;20081;-75
2023/08/19 03:50:10;;;;;;;10.32;7.47;;;;;;;;;;5093407;28;20493;-75
2023/08/19 03:52:36;;;;;;;8.35;7.22;;;;;;;;;;5093655;28;20055;-74
2023/08/19 03:55:01;;;;;;;9.98;7.45;;;;;;;;;;5075099;28;20031;-74
2023/08/19 03:57:27;;;;;;;13.98;7.40;;;;;;;;;;5093510;28;20028;-75
2023/08/19 03:59:52;;;;;;;9.25;7.85;;;;;;;;;;5093549;28;20045;-73
2023/08/19 04:02:17;;;;;;;11.87;7.30;;;;;;;;;;5093181;28;20051;-75
2023/08/19 04:05:00;;;;;;;9.20;7.80;;;;;;;;;;5075112;28;20615;-75
2023/08/19 04:07:25;;;;;;;11.48;7.68;;;;;;;;;;5093185;28;20505;-75
2023/08/19 04:09:50;;;;;;;12.63;7.90;;;;;;;;;;5075028;28;20028;-75
2023/08/19 04:12:16;;;;;;;10.38;7.53;;;;;;;;;;5093893;28;20028;-75
2023/08/19 04:14:42;;;;;;;10.20;7.65;;;;;;;;;;5093239;28;20394;-74
2023/08/19 04:17:07;;;;;;;8.85;7.53;;;;;;;;;;5092934;28;20028;-74
2023/08/19 04:19:33;;;;;;;9.18;7.50;;;;;;;;;;5092773;28;20030;-74
2023/08/19 04:21:58;;;;;;;9.35;7.72;;;;;;;;;;5074782;28;20020;-73
2023/08/19 04:24:23;;;;;;;9.48;7.80;;;;;;;;;;5092818;28;20054;-74
2023/08/19 04:26:48;;;;;;;9.65;7.68;;;;;;;;;;5092490;28;20395;-74
2023/08/19 04:29:14;;;;;;;14.15;7.97;;;;;;;;;;5091762;28;20024;-75
2023/08/19 04:31:39;;;;;;;12.07;8.20;;;;;;;;;;5074288;28;20479;-74
2023/08/19 04:34:04;;;;;;;12.38;7.85;;;;;;;;;;5092854;28;20701;-74
2023/08/19 04:36:29;;;;;;;8.95;6.97;;;;;;;;;;5092675;28;20110;-74
2023/08/19 04:38:56;;;;;;;10.75;8.23;;;;;;;;;;5094947;28;20016;-74
2023/08/19 04:41:21;;;;;;;11.57;8.10;;;;;;;;;;5096912;28;20118;-75
2023/08/19 04:43:47;;;;;;;8.93;7.20;;;;;;;;;;5097258;28;20077;-74
2023/08/19 04:46:12;;;;;;;8.93;7.28;;;;;;;;;;5096921;28;20024;-74
2023/08/19 04:48:38;;;;;;;10.43;7.72;;;;;;;;;;5096779;28;20020;-73
2023/08/19 04:51:03;;;;;;;10.77;7.90;;;;;;;;;;5096830;28;20099;-75
2023/08/19 04:53:28;;;;;;;10.90;7.70;;;;;;;;;;5078637;28;20022;-74
2023/08/19 04:55:58;;;;;;;8.73;7.17;;;;;;;;;;5096967;28;20016;-74
2023/08/19 04:58:24;;;;;;;9.13;7.63;;;;;;;;;;5096731;28;20284;-74
2023/08/19 05:00:49;;;;;;;11.00;7.90;;;;;;;;;;5096817;28;20073;-73
2023/08/19 05:03:14;;;;;;;8.60;7.43;;;;;;;;;;5096597;28;20318;-74
2023/08/19 05:05:40;;;;;;;9.57;7.50;;;;;;;;;;5096523;28;20119;-74
2023/08/19 05:08:05;;;;;;;8.00;6.88;;;;;;;;;;5096571;28;20383;-74
2023/08/19 05:10:31;;;;;;;9.53;7.07;;;;;;;;;;5078310;28;20026;-74
2023/08/19 05:12:58;;;;;;;9.03;7.67;;;;;;;;;;5096413;28;20253;-74
2023/08/19 05:15:23;;;;;;;10.07;7.15;;;;;;;;;;5077978;28;20264;-75
2023/08/19 05:17:48;;;;;;;10.63;7.18;;;;;;;;;;5096291;28;20016;-75
2023/08/19 05:20:13;;;;;;;8.57;7.30;;;;;;;;;;5096333;28;20070;-74
2023/08/19 05:22:39;;;;;;;8.83;6.83;;;;;;;;;;5096251;28;20281;-75
2023/08/19 05:25:05;;;;;;;9.60;7.50;;;;;;;;;;5096521;28;20370;-75
2023/08/19 05:27:30;;;;;;;9.63;7.43;;;;;;;;;;5096162;28;20031;-73
2023/08/19 05:29:56;;;;;;;11.70;7.22;;;;;;;;;;5096133;28;20032;-73
2023/08/19 05:32:21;;;;;;;8.00;7.20;;;;;;;;;;5096057;28;20426;-73
2023/08/19 05:34:46;;;;;;;12.10;7.15;;;;;;;;;;5095897;28;20478;-73
2023/08/19 05:37:11;;;;;;;11.55;7.20;;;;;;;;;;5095850;28;20073;-73
2023/08/19 05:39:37;;;;;;;7.97;7.17;;;;;;;;;;5095730;28;20022;-74
2023/08/19 05:42:02;;;;;;;14.10;7.72;;;;;;;;;;5095827;28;20397;-74
2023/08/19 05:44:27;;;;;;;8.35;7.07;;;;;;;;;;5095695;28;20478;-73
2023/08/19 05:46:53;;;;;;;8.20;6.78;;;;;;;;;;5095485;28;20027;-74
2023/08/19 05:49:18;;;;;;;8.75;6.80;;;;;;;;;;5095475;28;20024;-74
2023/08/19 05:51:43;;;;;;;10.32;7.32;;;;;;;;;;5094793;28;20047;-74
2023/08/19 05:54:08;;;;;;;9.33;7.20;;;;;;;;;;5077511;28;20026;-74
2023/08/19 05:56:34;;;;;;;8.32;7.00;;;;;;;;;;5096185;28;20371;-73
2023/08/19 05:58:59;;;;;;;10.43;7.40;;;;;;;;;;5095831;28;20432;-74
2023/08/19 06:01:25;;;;;;;11.17;6.93;;;;;;;;;;5095390;28;20276;-73
2023/08/19 06:03:50;;;;;;;10.40;7.47;;;;;;;;;;5095451;28;20310;-74
2023/08/19 06:06:16;;;;;;;8.90;6.85;;;;;;;;;;5094910;28;20030;-74
2023/08/19 06:08:41;;;;;;;11.10;7.53;;;;;;;;;;5095276;28;20102;-74
2023/08/19 06:11:06;;;;;;;9.25;6.75;;;;;;;;;;5094940;28;20020;-74
2023/08/19 06:13:33;;;;;;;9.02;7.20;;;;;;;;;;5094981;28;20368;-74
2023/08/19 06:15:59;;;;;;;9.40;6.95;;;;;;;;;;5094939;28;20043;-74
2023/08/19 06:18:25;;;;;;;13.77;7.40;;;;;;;;;;5095388;28;20028;-75
2023/08/19 06:20:51;;;;;;;10.85;7.65;;;;;;;;;;5095072;28;20043;-74
2023/08/19 06:23:20;;;;;;;11.32;6.45;;;;;;;;;;5095176;28;20030;-75
2023/08/19 06:25:48;;;;;;;10.93;6.80;;;;;;;;;;5095182;28;20026;-76
2023/08/19 06:28:14;;;;;;;8.23;6.65;;;;;;;;;;5095114;28;20395;-74
2023/08/19 06:30:39;;;;;;;9.13;6.75;;;;;;;;;;5094974;28;20020;-74
2023/08/19 06:33:05;;;;;;;9.85;7.38;;;;;;;;;;5094758;28;20039;-76
2023/08/19 06:35:31;;;;;;;9.07;7.05;;;;;;;;;;5095147;28;20501;-76
2023/08/19 06:38:02;;;;;;;10.45;7.13;;;;;;;;;;5094748;28;20034;-76
2023/08/19 06:40:33;;;;;;;11.48;7.10;;;;;;;;;;5094873;28;20055;-75
2023/08/19 06:42:59;;;;;;;10.13;6.88;;;;;;;;;;5094897;28;20141;-75
2023/08/19 06:45:26;;;;;;;7.90;6.43;;;;;;;;;;5076251;28;20123;-76
2023/08/19 06:47:53;;;;;;;7.93;6.55;;;;;;;;;;5094656;28;20028;-76
2023/08/19 06:50:18;;;;;;;8.98;6.70;;;;;;;;;;5094679;28;20119;-76
2023/08/19 06:52:44;;;;;;;8.75;6.57;;;;;;;;;;5094205;28;20063;-75
2023/08/19 06:55:10;;;;;;;7.72;6.30;;;;;;;;;;5076031;28;20035;-76
2023/08/19 06:57:44;;;;;;;8.60;6.35;;;;;;;;;;5095697;28;20020;-77
2023/08/19 07:00:11;;;;;;;10.35;6.97;;;;;;;;;;5094787;28;20487;-75
2023/08/19 07:02:37;;;;;;;10.52;6.22;;;;;;;;;;5094099;28;20020;-77
2023/08/19 07:05:14;;;;;;;9.57;5.97;;;;;;;;;;5094545;28;20073;-77
2023/08/19 07:07:46;;;;;;;11.32;6.90;;;;;;;;;;5094916;28;20099;-78
2023/08/19 07:10:14;;;;;;;7.93;6.43;;;;;;;;;;5095167;28;20379;-76
2023/08/19 07:12:40;;;;;;;16.65;6.45;;;;;;;;;;5094193;28;20027;-76
2023/08/19 07:15:11;;;;;;;7.78;6.47;;;;;;;;;;5075912;28;20404;-76
2023/08/19 07:17:44;;;;;;;9.10;6.25;;;;;;;;;;5094945;28;20539;-78
2023/08/19 07:20:16;;;;;;;10.93;6.07;;;;;;;;;;5094681;28;20024;-77
2023/08/19 07:22:43;;;;;;;6.93;6.25;;;;;;;;;;5093766;28;20032;-76
2023/08/19 07:25:09;;;;;;;7.00;5.97;;;;;;;;;;5093930;28;20035;-76
2023/08/19 07:27:35;;;;;;;9.15;5.75;;;;;;;;;;5093974;28;20396;-75
2023/08/19 07:30:02;;;;;;;8.05;6.47;;;;;;;;;;5094003;28;20028;-76
2023/08/19 07:32:30;;;;;;;8.45;6.18;;;;;;;;;;5077547;28;20020;-76
2023/08/19 07:34:56;;;;;;;8.38;6.05;;;;;;;;;;5093686;28;20027;-75
2023/08/19 07:37:21;;;;;;;7.85;6.32;;;;;;;;;;5075460;28;20028;-75
2023/08/19 07:39:46;;;;;;;9.52;6.60;;;;;;;;;;5093855;28;20023;-75
2023/08/19 07:42:12;;;;;;;10.30;6.32;;;;;;;;;;5094244;28;20062;-76
2023/08/19 07:44:37;;;;;;;10.35;6.75;;;;;;;;;;5099693;28;20024;-77
2023/08/19 07:47:02;;;;;;;8.40;6.10;;;;;;;;;;5076390;28;20027;-77
2023/08/19 07:49:27;;;;;;;10.90;6.43;;;;;;;;;;5094456;28;20063;-77
2023/08/19 07:51:53;;;;;;;7.67;6.30;;;;;;;;;;5096195;28;20016;-77
2023/08/19 07:54:21;;;;;;;7.30;6.15;;;;;;;;;;5075820;28;20249;-77
2023/08/19 07:56:47;;;;;;;8.65;6.40;;;;;;;;;;5075384;28;20027;-76
2023/08/19 07:59:12;;;;;;;12.93;6.78;;;;;;;;;;5093410;28;20027;-76
2023/08/19 08:01:37;;;;;;;8.10;6.20;;;;;;;;;;5093593;28;20575;-77
2023/08/19 08:04:03;;;;;;;9.82;6.45;;;;;;;;;;5080072;28;20619;-76
2023/08/19 08:06:28;;;;;;;8.75;5.90;;;;;;;;;;5093363;28;20016;-74
2023/08/19 08:08:53;;;;;;;11.10;6.40;;;;;;;;;;5093852;28;20039;-74
2023/08/19 08:11:18;;;;;;;9.27;6.25;;;;;;;;;;5093330;28;20245;-74
2023/08/19 08:13:44;;;;;;;8.53;6.23;;;;;;;;;;5093509;28;20081;-75
2023/08/19 08:16:09;;;;;;;9.43;6.32;;;;;;;;;;5091620;28;20268;-74
2023/08/19 08:18:34;;;;;;;7.27;6.17;;;;;;;;;;5091666;28;20024;-73
2023/08/19 08:21:00;;;;;;;8.30;6.32;;;;;;;;;;5091009;28;20276;-76
2023/08/19 08:23:25;;;;;;;7.37;5.20;;;;;;;;;;5091014;28;20020;-75
2023/08/19 08:25:50;;;;;;;6.93;5.75;;;;;;;;;;5090944;28;20309;-74
2023/08/19 08:28:15;;;;;;;7.15;5.68;;;;;;;;;;5091620;28;20020;-77
2023/08/19 08:30:41;;;;;;;8.73;5.73;;;;;;;;;;5073725;28;20066;-74
2023/08/19 08:33:08;;;;;;;7.25;5.45;;;;;;;;;;5091276;28;20338;-74
2023/08/19 08:35:33;;;;;;;8.13;5.88;;;;;;;;;;5092259;28;20024;-73
2023/08/19 08:37:58;;;;;;;6.75;5.72;;;;;;;;;;5074322;28;20390;-74
2023/08/19 08:40:23;;;;;;;7.70;5.75;;;;;;;;;;5094639;28;20063;-75
2023/08/19 08:42:50;;;;;;;11.17;5.70;;;;;;;;;;5093270;28;20047;-73
2023/08/19 08:45:16;;;;;;;8.50;5.80;;;;;;;;;;5094863;28;20260;-72
2023/08/19 08:47:41;;;;;;;7.53;5.45;;;;;;;;;;5093193;28;20044;-73
2023/08/19 08:50:08;;;;;;;8.02;5.85;;;;;;;;;;5092959;28;20537;-74
2023/08/19 08:52:34;;;;;;;6.03;5.22;;;;;;;;;;5074574;28;20532;-73
2023/08/19 08:55:01;;;;;;;7.68;5.85;;;;;;;;;;5074743;28;20478;-74
2023/08/19 08:57:26;;;;;;;7.55;5.35;;;;;;;;;;5074564;28;20028;-73
2023/08/19 08:59:54;;;;;;;7.20;5.45;;;;;;;;;;5092611;28;20429;-73
2023/08/19 09:02:21;;;;;;;6.50;5.47;;;;;;;;;;5092539;28;20121;-73
2023/08/19 09:04:47;;;;;;;5.95;5.30;;;;;;;;;;5092744;28;20017;-72
2023/08/19 09:07:20;;;;;;;6.03;4.80;;;;;;;;;;5092794;28;20068;-73
2023/08/19 09:09:47;;;;;;;6.07;4.63;;;;;;;;;;5093007;28;20016;-74
2023/08/19 09:12:12;;;;;;;5.55;4.95;;;;;;;;;;5092552;28;20020;-74
2023/08/19 09:14:42;;;;;;;7.90;5.10;;;;;;;;;;5092457;28;20036;-72
2023/08/19 09:17:12;;;;;;;7.03;4.85;;;;;;;;;;5092507;28;20372;-72
2023/08/19 09:19:38;;;;;;;4.97;4.20;;;;;;;;;;5092404;28;20028;-72
2023/08/19 09:22:20;;;;;;;9.60;4.40;;;;;;;;;;5093188;28;20532;-74
2023/08/19 09:24:46;;;;;;;5.72;4.93;;;;;;;;;;5093673;28;20026;-73
2023/08/19 09:27:11;;;;;;;8.73;4.78;;;;;;;;;;5078015;28;20114;-73
2023/08/19 09:29:36;;;;;;;6.53;4.03;;;;;;;;;;5096467;28;20035;-74
2023/08/19 09:32:02;;;;;;;5.93;4.43;;;;;;;;;;5096054;28;20047;-74
2023/08/19 09:34:28;;;;;;;4.70;4.28;;;;;;;;;;5096223;28;20265;-74
2023/08/19 09:36:56;;;;;;;5.07;3.88;;;;;;;;;;5077886;28;20020;-74
2023/08/19 09:39:25;;;;;;;6.05;4.10;;;;;;;;;;5095971;28;20475;-74
2023/08/19 09:41:56;;;;;;;5.47;4.10;;;;;;;;;;5095854;28;20039;-74
2023/08/19 09:44:21;;;;;;;6.25;3.72;;;;;;;;;;5095842;28;20056;-73
2023/08/19 09:46:47;;;;;;;7.72;3.97;;;;;;;;;;5095788;28;20491;-74
2023/08/19 09:49:20;;;;;;;7.85;4.20;;;;;;;;;;5096110;28;20028;-73
2023/08/19 09:51:52;;;;;;;5.07;3.95;;;;;;;;;;5096085;28;20024;-73
2023/08/19 09:54:17;;;;;;;5.22;4.03;;;;;;;;;;5077511;28;20027;-74
2023/08/19 09:56:53;;;;;;;6.53;4.60;;;;;;;;;;5077456;28;20073;-73
2023/08/19 09:59:18;;;;;;;8.85;4.60;;;;;;;;;;5095866;28;20263;-73
2023/08/19 10:01:44;;;;;;;4.63;4.10;;;;;;;;;;5095693;28;20218;-74
2023/08/19 10:04:09;;;;;;;7.40;4.00;;;;;;;;;;5095508;28;20437;-72
2023/08/19 10:06:39;;;;;;;5.43;4.03;;;;;;;;;;5095446;28;20498;-72
2023/08/19 10:09:08;;;;;;;5.88;4.00;;;;;;;;;;5078176;28;20458;-74
2023/08/19 10:11:35;;;;;;;6.20;3.78;;;;;;;;;;5095456;28;20498;-74
2023/08/19 10:14:03;;;;;;;4.93;3.63;;;;;;;;;;5077529;28;20070;-74
2023/08/19 10:16:35;;;;;;;10.55;3.50;;;;;;;;;;5095089;28;20493;-72
2023/08/19 10:19:03;;;;;;;4.95;3.50;;;;;;;;;;5095394;28;20070;-74
2023/08/19 10:21:30;;;;;;;7.20;4.10;;;;;;;;;;5095335;28;20133;-73
2023/08/19 10:23:57;;;;;;;5.88;4.10;;;;;;;;;;5095245;28;20494;-73
2023/08/19 10:26:22;;;;;;;5.50;4.05;;;;;;;;;;5094963;28;20028;-73
2023/08/19 10:29:21;;;;;;;5.68;4.10;;;;;;;;;;5095211;28;20471;-73
2023/08/19 10:31:46;;;;;;;6.85;4.00;;;;;;;;;;5039625;28;20414;-73
2023/08/19 10:34:26;;;;;;;7.38;4.03;;;;;;;;;;5076748;28;20016;-73
2023/08/19 10:37:08;;;;;;;7.53;3.97;;;;;;;;;;5076230;28;20031;-73
2023/08/19 10:39:35;;;;;;;4.72;3.80;;;;;;;;;;5076759;28;20111;-74
2023/08/19 10:42:00;;;;;;;5.80;3.50;;;;;;;;;;5094806;28;20070;-73
2023/08/19 10:44:31;;;;;;;6.72;4.03;;;;;;;;;;5094767;28;20024;-73
2023/08/19 10:47:10;;;;;;;5.25;4.13;;;;;;;;;;5095100;28;20023;-73
2023/08/19 10:49:36;;;;;;;8.18;4.30;;;;;;;;;;5094640;28;20020;-73
2023/08/19 10:52:05;;;;;;;6.55;4.50;;;;;;;;;;5094793;28;20020;-73
2023/08/19 10:54:40;;;;;;;5.97;4.35;;;;;;;;;;5094473;28;20027;-72
2023/08/19 10:57:08;;;;;;;7.22;4.32;;;;;;;;;;5095047;28;20032;-73
2023/08/19 10:59:35;;;;;;;6.63;4.30;;;;;;;;;;5094509;28;20556;-74
2023/08/19 11:02:00;;;;;;;7.20;4.53;;;;;;;;;;5094446;28;20510;-73
2023/08/19 11:04:26;;;;;;;6.22;3.90;;;;;;;;;;5076107;28;20020;-73
2023/08/19 11:06:56;;;;;;;6.40;4.15;;;;;;;;;;5094272;28;20020;-72
2023/08/19 11:09:26;;;;;;;6.60;4.50;;;;;;;;;;5094189;28;20016;-73
2023/08/19 11:11:51;;;;;;;9.02;3.88;;;;;;;;;;5094575;28;20016;-73
2023/08/19 11:14:18;;;;;;;5.00;4.40;;;;;;;;;;5075913;28;20035;-72
2023/08/19 11:16:50;;;;;;;6.03;4.45;;;;;;;;;;5094334;28;20058;-74
2023/08/19 11:19:17;;;;;;;6.93;4.13;;;;;;;;;;5094441;28;20027;-72
2023/08/19 11:21:45;;;;;;;5.57;4.35;;;;;;;;;;5075774;28;20509;-73
2023/08/19 11:24:12;;;;;;;6.32;4.32;;;;;;;;;;5094177;28;20467;-72
2023/08/19 11:26:41;;;;;;;4.10;3.70;;;;;;;;;;5093804;28;20086;-74
2023/08/19 11:29:07;;;;;;;5.50;4.25;;;;;;;;;;5093845;28;20024;-74
2023/08/19 11:31:33;;;;;;;4.85;4.10;;;;;;;;;;5093859;28;20407;-71
2023/08/19 11:33:59;;;;;;;5.53;4.18;;;;;;;;;;5093604;28;20103;-72
2023/08/19 11:36:25;;;;;;;5.90;4.30;;;;;;;;;;5093417;28;20454;-72
2023/08/19 11:38:56;;;;;;;4.28;3.88;;;;;;;;;;5093456;28;20024;-73
2023/08/19 11:41:22;;;;;;;9.63;4.53;;;;;;;;;;5075709;28;20024;-73
2023/08/19 11:43:50;;;;;;;6.20;4.20;;;;;;;;;;5093450;28;20028;-71
2023/08/19 11:46:16;;;;;;;4.78;4.28;;;;;;;;;;5093435;28;20387;-72
2023/08/19 11:48:41;;;;;;;12.93;4.63;;;;;;;;;;5093237;28;20040;-72
2023/08/19 11:51:13;;;;;;;5.38;4.53;;;;;;;;;;5093450;28;20604;-71
2023/08/19 11:53:40;;;;;;;8.35;4.53;;;;;;;;;;5093635;28;20024;-72
2023/08/19 11:56:06;;;;;;;6.15;4.32;;;;;;;;;;5093246;28;20031;-72
2023/08/19 11:58:46;;;;;;;6.10;4.32;;;;;;;;;;5093705;28;20028;-72
2023/08/19 12:01:11;;;;;;;6.70;4.47;;;;;;;;;;5093487;28;20115;-72
2023/08/19 12:03:41;;;;;;;6.28;4.43;;;;;;;;;;5093731;28;20128;-73
2023/08/19 12:06:07;;;;;;;6.95;4.35;;;;;;;;;;5093214;28;20031;-73
2023/08/19 12:08:32;;;;;;;11.75;5.18;;;;;;;;;;5093414;28;20016;-73
2023/08/19 12:10:58;;;;;;;6.88;4.35;;;;;;;;;;5093274;28;20107;-72
2023/08/19 12:13:24;;;;;;;8.02;4.28;;;;;;;;;;5074976;28;20024;-74
2023/08/19 12:15:50;;;;;;;5.78;4.10;;;;;;;;;;5092891;28;20024;-74
2023/08/19 12:18:18;;;;;;;5.72;4.65;;;;;;;;;;5093337;28;20383;-74
2023/08/19 12:20:44;;;;;;;7.38;4.55;;;;;;;;;;5092943;28;20054;-73
2023/08/19 12:23:09;;;;;;;4.97;4.40;;;;;;;;;;5092957;28;20020;-74
2023/08/19 12:25:55;;;;;;;5.03;4.50;;;;;;;;;;5092987;28;20122;-73
2023/08/19 12:28:22;;;;;;;6.00;4.50;;;;;;;;;;5092964;28;20451;-74
2023/08/19 12:30:48;;;;;;;5.97;4.70;;;;;;;;;;5092925;28;20020;-74
2023/08/19 12:33:15;;;;;;;5.60;4.18;;;;;;;;;;5074741;28;20027;-74
2023/08/19 12:35:46;;;;;;;5.53;4.38;;;;;;;;;;5092805;28;20027;-73
2023/08/19 12:38:13;;;;;;;6.75;4.30;;;;;;;;;;5074674;28;20023;-73
2023/08/19 12:40:39;;;;;;;6.60;4.97;;;;;;;;;;5092940;28;20028;-74
2023/08/19 12:43:04;;;;;;;5.00;4.07;;;;;;;;;;5074600;28;20020;-73
2023/08/19 12:45:29;;;;;;;5.47;4.40;;;;;;;;;;5092691;28;20052;-74
2023/08/19 12:47:54;;;;;;;4.30;3.90;;;;;;;;;;5092746;28;20035;-73
2023/08/19 12:50:21;;;;;;;6.87;4.33;;;;;;;;;;5074582;28;20028;-74
2023/08/19 12:52:48;;;;;;;8.48;4.57;;;;;;;;;;5093270;28;20256;-74
2023/08/19 12:55:14;;;;;;;6.53;4.63;;;;;;;;;;5074546;28;20505;-74
2023/08/19 12:57:45;;;;;;;6.45;4.53;;;;;;;;;;5092755;28;20032;-73
2023/08/19 13:00:15;;;;;;;8.02;4.53;;;;;;;;;;5094866;28;20020;-73
2023/08/19 13:02:40;;;;;;;5.10;4.25;;;;;;;;;;5078336;28;20064;-73
2023/08/19 13:05:06;;;;;;;4.45;4.03;;;;;;;;;;5096630;28;20030;-73
2023/08/19 13:07:32;;;;;;;6.40;4.20;;;;;;;;;;5096598;28;20032;-73
2023/08/19 13:09:59;;;;;;;5.43;4.13;;;;;;;;;;5096808;28;20036;-74
2023/08/19 13:12:28;;;;;;;7.43;4.32;;;;;;;;;;5096506;28;20105;-74
2023/08/19 13:14:54;;;;;;;5.13;4.25;;;;;;;;;;5096405;28;20484;-73
2023/08/19 13:17:20;;;;;;;5.38;4.22;;;;;;;;;;5078231;28;20028;-73
2023/08/19 13:19:45;;;;;;;9.90;4.32;;;;;;;;;;5096428;28;20035;-73
2023/08/19 13:22:11;;;;;;;5.20;4.20;;;;;;;;;;5096160;28;20391;-73
2023/08/19 13:24:36;;;;;;;6.13;4.20;;;;;;;;;;5096181;28;20253;-72
2023/08/19 13:27:03;;;;;;;8.27;4.20;;;;;;;;;;5096326;28;20024;-72
2023/08/19 13:29:28;;;;;;;5.18;4.20;;;;;;;;;;5078102;28;20127;-73
2023/08/19 13:31:53;;;;;;;4.38;3.97;;;;;;;;;;5096132;28;20507;-73
2023/08/19 13:34:19;;;;;;;7.97;4.87;;;;;;;;;;5096338;28;20027;-74
2023/08/19 13:36:44;;;;;;;8.20;4.40;;;;;;;;;;5096123;28;20081;-73
2023/08/19 13:39:09;;;;;;;4.97;4.27;;;;;;;;;;5077778;28;20647;-73
2023/08/19 13:41:34;;;;;;;7.05;3.92;;;;;;;;;;5077702;28;20407;-72
2023/08/19 13:44:00;;;;;;;4.80;4.13;;;;;;;;;;5095839;28;20052;-73
2023/08/19 13:46:25;;;;;;;8.32;3.83;;;;;;;;;;5095773;28;20257;-74
2023/08/19 13:48:50;;;;;;;5.53;4.35;;;;;;;;;;5095851;28;20024;-73
2023/08/19 13:51:18;;;;;;;8.47;4.70;;;;;;;;;;5078407;28;20044;-73
2023/08/19 13:53:44;;;;;;;6.88;5.43;;;;;;;;;;5095730;28;20287;-72
2023/08/19 13:56:10;;;;;;;5.55;4.50;;;;;;;;;;5095647;28;20028;-73
2023/08/19 13:58:35;;;;;;;5.43;4.40;;;;;;;;;;5077506;28;20024;-74
2023/08/19 14:01:01;;;;;;;6.78;4.70;;;;;;;;;;5077732;28;20119;-73
2023/08/19 14:03:26;;;;;;;6.77;4.27;;;;;;;;;;5095779;28;20051;-70
2023/08/19 14:05:52;;;;;;;7.65;4.63;;;;;;;;;;5095396;28;20028;-73
2023/08/19 14:08:17;;;;;;;5.85;4.57;;;;;;;;;;5095453;28;20054;-75
2023/08/19 14:10:45;;;;;;;6.10;4.45;;;;;;;;;;5076619;28;20019;-74
2023/08/19 14:13:10;;;;;;;8.48;4.38;;;;;;;;;;5095163;28;20027;-73
2023/08/19 14:15:36;;;;;;;6.90;4.60;;;;;;;;;;5095158;28;20036;-75
2023/08/19 14:18:01;;;;;;;5.13;4.40;;;;;;;;;;5095276;28;20100;-73
2023/08/19 14:20:28;;;;;;;6.33;4.47;;;;;;;;;;5095203;28;20031;-73
2023/08/19 14:22:53;;;;;;;6.45;4.25;;;;;;;;;;5095098;28;20298;-74
2023/08/19 14:25:18;;;;;;;5.67;4.20;;;;;;;;;;5095261;28;20028;-73
2023/08/19 14:27:44;;;;;;;6.10;4.30;;;;;;;;;;5095188;28;20348;-73
2023/08/19 14:30:11;;;;;;;6.50;4.60;;;;;;;;;;5077017;28;20038;-72
2023/08/19 14:32:39;;;;;;;6.38;4.07;;;;;;;;;;5076798;28;20020;-73
2023/08/19 14:35:10;;;;;;;6.85;4.05;;;;;;;;;;5094975;28;20030;-74
2023/08/19 14:37:35;;;;;;;5.68;4.32;;;;;;;;;;5094866;28;20026;-73